Impacts TAF Board
For situational awareness. Not to be used for flight planning purposes.
IDs:

KIAH - Houston/Bush Intl, TX, US

Issued at 2047 UTC 21 May 2022
Updated at 2140 UTC 21 May 2022
Potential Impact None Slight Moderate High
Time2053Z 21/22Z 21/23Z 22/00Z 22/01Z 22/02Z 22/03Z 22/04Z 22/05Z 22/06Z 22/07Z 22/08Z 22/09Z 22/10Z>>
Type OBS PRVL PRVL PRVL PRVL PRVL PRVL PRVL PRVL PRVL PRVL PRVL
  [TEMP]  
PRVL
  [TEMP]  
PRVL
  [TEMP]  
VIS 10 >6 >6 >6 >6 >6 >6 >6 >6 >6 >6 >6
  [3]  
>6
  [3]  
>6
  [3]  
CIG -- 60 60 60 60 60 150 150 150 150 20 20
  [20]  
20
  [20]  
20
  [20]  
Cover SCT BKN BKN BKN BKN BKN BKN BKN BKN BKN BKN BKN
  [BKN]  
BKN
  [BKN]  
BKN
  [BKN]  
FltCat VFR VFR VFR VFR VFR VFR VFR VFR VFR VFR MVFR MVFR
  [MVFR]  
MVFR
  [MVFR]  
MVFR
  [MVFR]  
WX -- -- -- -- -- -- -- -- -- -- -RA VCTS -RA VCTS
  [TSRA]  
-RA VCTS
  [TSRA]  
-RA VCTS
  [TSRA]  
WDir 140 140 140 140 140 140 140 140 140 140 150 150
[VRB]
150
[VRB]
150
[VRB]
WSpd 17 14 14 14 14 14 10 10 10 10 10 10
  [25]  
10
  [25]  
10
  [25]  
WGst 26 -- -- -- -- -- -- -- -- -- -- --
  [--]  
--
  [--]  
--
  [--]  
WSHgt -- -- -- -- -- -- -- -- -- -- -- --
[--]
--
[--]
--
[--]
WSDir -- -- -- -- -- -- -- -- -- -- -- --
[--]
--
[--]
--
[--]
WSSpd -- -- -- -- -- -- -- -- -- -- -- --
[--]
--
[--]
--
[--]
Raw TAF
KIAH 212047Z 2121/2224 14014KT P6SM SCT035 BKN060
  FM220300 14010KT P6SM SCT025 BKN150
  FM220700 15010KT P6SM -RA VCTS BKN020CB
  TEMPO 2208/2212 VRB25KT 3SM TSRA
  FM221200 02012KT P6SM VCSH SCT008 BKN015
  FM221700 02010KT P6SM VCSH SCT025 BKN120
  FM222100 06009KT P6SM VCSH BKN035


Raw METAR
KIAH 212053Z 14017G26KT 10SM SCT038 34/23 A2986 RMK AO2 PK WND 15026/2044 SLP109 T03390233 58010
KIAH 211953Z 14014KT 10SM SCT036 BKN055 33/24 A2988 RMK AO2 SLP115 T03330244
KIAH 211853Z 15013G21KT 10SM SCT036 BKN055 33/24 A2989 RMK AO2 SLP119 T03280244

METAR Board
Radar Display
Forecast Discussion
For situational awareness. Not to be used for flight planning purposes.